• Join FlightAware (Why Join?)
  • Login
  • US Flag 
03:20AM EST


 

Airport Tracker/Info


-or-


 

Live Flight TrackerFlight Track Log ✈ XOJ549 ✈ 05-Jul-2013 ✈ KIAH - KERV

Flight Track Log - Related Links

Times and Time Zones

All times are in EDT time to prevent confusion due to time zone crossing. See the XOJ549 flight status page for this flight to view local times or setup timezone preferences in your user account.

Time Position Orientation Groundspeed Altitude Reporting Facility
EDT Latitude Longitude Course Direction KTS MPH feet Rate Location/Type
01:40PM 29.9342 -95.3639 208° Southwest 255 293 2,200  Level Houston Center
01:41PM 29.9064 -95.4031 231° Southwest 273 314 3,900 2,640 Climbing Houston Center
01:42PM 29.8631 -95.4736 235° Southwest 277 319 6,600 2,820 Climbing Houston Center
01:43PM 29.8739 -95.5658 278° West 291 335 9,700 2,820 Climbing Houston Center
01:44PM 29.8856 -95.6658 278° West 312 359 12,500 2,880 Climbing Houston Center
01:45PM 29.8969 -95.7714 277° West 329 379 15,700 2,880 Climbing Houston Center
01:46PM 29.9092 -95.8806 277° West 341 392 18,500 2,040 Climbing Houston Center
01:47PM 29.9164 -96.0172 274° West 368 423 20,000 720 Climbing Houston Center
01:48PM 29.9156 -96.1422 270° West 388 447 20,000  Level Houston Center
01:49PM 29.9142 -96.2717 269° West 401 461 20,000  Level Houston Center
01:50PM 29.9136 -96.3997 270° West 402 463 20,000  Level Houston Center
01:51PM 29.9136 -96.5289 270° West 404 465 20,000  Level Houston Center
01:52PM 29.9119 -96.6783 269° West 394 453 20,000  Level Houston Center
01:53PM 29.9114 -96.8033 270° West 394 453 20,000  Level Houston Center
01:54PM 29.9097 -96.9281 269° West 392 451 20,000  Level Houston Center
01:55PM 29.9081 -97.0539 269° West 395 455 20,000 -60 Level Houston Center
01:56PM 29.9069 -97.1794 269° West 395 455 19,900  Descending Houston Center
01:57PM 29.9056 -97.3050 269° West 396 456 20,000  Climbing Houston Center
01:58PM 29.9036 -97.4311 269° West 397 457 19,900 -1,260 Descending Houston Center
01:59PM 29.9008 -97.6008 269° West 380 437 17,300 -2,100 Descending Houston Center
02:00PM 29.8989 -97.6994 269° West 368 423 15,700 -1,860 Descending Houston Center
02:01PM 29.8978 -97.8144 269° West 361 415 13,800 -1,680 Descending Houston Center
02:02PM 29.8764 -97.9286 258° West 336 387 12,300 -1,320 Descending Houston Center
02:03PM 29.8875 -98.0314 277° West 326 375 11,100 -1,080 Descending Houston Center
02:04PM 29.8967 -98.1319 276° West 316 364 10,100 -960 Descending Houston Center
02:05PM 29.9053 -98.2331 276° West 298 343 9,200 -960 Descending Houston Center
02:06PM 29.9133 -98.3267 276° West 295 339 8,200 -1,020 Descending Houston Center
02:07PM 29.9211 -98.4200 276° West 294 338 7,200 -1,020 Descending Houston Center
02:08PM 29.9297 -98.5169 276° West 282 325 6,100 -1,080 Descending Houston Center
02:09PM 29.9372 -98.6056 276° West 279 321 5,100 -720 Descending Houston Center
02:10PM 29.9456 -98.7000 276° West 278 320 4,700 -540 Descending Houston Center
02:11PM 29.9522 -98.7869 275° West 275 316 4,100 -300 Descending Houston Center
02:12PM 29.9594 -98.8711 276° West 267 307 4,200  Climbing Houston Center
02:13PM 29.9658 -98.9608 275° West 264 304 4,100 -300 Descending Houston Center
02:14PM 29.9742 -99.0311 278° West 230 265 3,600 -420 Descending Houston Center
02:15PM 30.0153 -99.0867 311° West 226 260 3,300 -300 Descending Houston Center
02:17PM 29.9767 -99.0855 270° West  Level Estimated
02:24PM 29.9767 -99.0855 270° West  Level Estimated
02:25PM 29.9767 -99.0855 270° West  Level Estimated